Station: Kangaroo Flats (Defence)

  Atmospheric Gas Attenuation - ITU Rec 676-11   --------------- db/100km ---------------
Date Time Temp RH % AH g/m3 Dew Point Wind Direction Speed kph Gust kph Barometer mB Rainfall Since 9am 24GHz 47GHz 76GHz 122GHz 134GHz 241GHz
07 07:40 18.5 91 14.4 17.1 0 0 1013.1 0 31.7 34.3 61.7 162.9 172.0 596.0
07 07:30 18.5 92 14.55 17.2 0 0 1013.1 0 32.0 34.6 62.4 164.7 174.2 603.8
07 07:20 18.5 93 14.71 17.3 0 0 1013.1 0 32.4 34.9 63.1 166.7 176.6 612.2
07 07:10 18.6 93 14.8 17.4 0 0 1013.1 0 32.6 35.0 63.4 167.5 177.7 616.1
07 07:00 18.8 93 14.98 17.6 0 0 1013.1 0 32.9 35.3 64.1 169.3 180.0 624.0
07 06:50 19 93 15.15 17.8 0 0 1013.1 0 33.3 35.5 64.7 171.0 182.1 631.3
07 06:40 19.4 93 15.52 18.2 0 0 1013.1 0 34.1 36.0 66.1 174.6 186.7 647.5
07 06:30 19.3 93 15.42 18.1 0 0 1013.1 0 33.9 35.9 65.7 173.6 185.4 643.1
07 06:20 19.4 93 15.52 18.2 0 0 1013.1 0 34.1 36.0 66.1 174.6 186.7 647.5
07 06:10 19.4 93 15.52 18.2 0 0 1013.1 0 34.1 36.0 66.1 174.6 186.7 647.5
07 06:00 19.4 93 15.52 18.2 0 2 1013.1 0 34.1 36.0 66.1 174.6 186.7 647.5
07 05:50 19.2 93 15.33 18 0 0 1013.1 0 33.7 35.7 65.4 172.7 184.3 639.1
07 05:40 18.5 91 14.4 17.1 2 4 1013.1 0 31.7 34.3 61.7 162.9 172.0 596.0
07 05:30 18 92 14.13 16.7 0 0 1013.1 0 31.2 34.0 60.9 160.6 169.1 585.8
07 05:20 18 91 13.98 16.6 0 0 1013.1 0 30.9 33.7 60.2 158.8 166.8 578.0
07 05:10 18.2 91 14.14 16.8 0 0 1013.1 0 31.2 33.9 60.7 160.3 168.8 584.8
07 04:50 18.4 91 14.31 17 0 0 1013.1 0 31.5 34.2 61.4 162.0 170.8 592.0
07 04:40 18.3 91 14.23 16.8 0 0 1013.1 0 31.4 34.1 61.1 161.2 169.9 588.7
07 04:30 18.7 91 14.57 17.2 0 0 1013.1 0 32.1 34.5 62.3 164.5 174.0 603.3
07 04:20 18.5 91 14.4 17 0 0 1013.1 0 31.7 34.3 61.7 162.9 172.0 596.0
07 04:10 18.4 91 14.31 16.9 0 0 1013.1 0 31.5 34.2 61.4 162.0 170.8 592.0
07 04:00 18.7 91 14.57 17.2 0 0 1013.1 0 32.1 34.5 62.3 164.5 174.0 603.3
07 03:50 19.1 91 14.92 17.6 0 0 1013.1 0 32.8 35.0 63.6 167.9 178.4 618.4
07 03:40 18.9 91 14.74 17.4 0 0 1013.1 0 32.4 34.8 62.9 166.2 176.1 610.5
07 03:30 18.8 90 14.49 17.1 0 0 1013.1 0 31.9 34.3 61.9 163.3 172.6 598.3
07 03:20 18.8 90 14.49 17.1 0 0 1013.1 0 31.9 34.3 61.9 163.3 172.6 598.3
07 03:10 18.8 90 14.49 17.1 0 0 1013.1 0 31.9 34.3 61.9 163.3 172.6 598.3
07 03:00 18.9 89 14.42 17 0 0 1013.1 0 31.7 34.2 61.5 162.3 171.3 593.9
07 02:50 18.9 89 14.42 17 0 0 1013.1 0 31.7 34.2 61.5 162.3 171.3 593.9
07 02:40 19 89 14.5 17.1 0 0 1013.1 0 31.9 34.3 61.7 163.0 172.3 597.2
07 02:30 19.1 89 14.59 17.2 0 0 1013.1 0 32.1 34.4 62.1 163.9 173.4 601.1
07 02:20 19.2 89 14.67 17.3 0 0 1013.1 0 32.2 34.5 62.4 164.6 174.4 604.5
07 02:10 19.3 89 14.76 17.4 0 0 1013.1 0 32.4 34.6 62.7 165.5 175.5 608.4
07 02:00 19.2 88 14.51 17.2 0 0 1013.1 0 31.9 34.2 61.6 162.7 172.0 596.2
07 01:50 19.2 86 14.18 16.9 0 0 1013.1 0 31.2 33.6 60.1 158.7 167.1 579.2
07 01:40 19.4 86 14.35 17.1 0 0 1013.1 0 31.5 33.9 60.7 160.4 169.2 586.4
07 01:30 19.4 86 14.35 17 0 0 1013.1 0 31.5 33.9 60.7 160.4 169.2 586.4
07 01:20 19.5 85 14.26 16.9 0 0 1013.1 0 31.3 33.6 60.3 159.1 167.6 581.0
07 01:10 19.8 84 14.35 17 0 0 1013.1 0 31.5 33.7 60.4 159.5 168.3 583.3
07 01:00 19.8 84 14.35 17 0 0 1013.1 0 31.5 33.7 60.4 159.5 168.3 583.3
07 00:50 20.1 83 14.43 17.1 0 0 1013.1 0 31.7 33.7 60.6 159.9 168.8 585.1
07 00:40 20.3 83 14.6 17.3 0 0 1013.1 0 32.0 33.9 61.2 161.5 170.8 592.3
07 00:30 20.6 82 14.67 17.4 0 0 1013.1 0 32.1 34.0 61.2 161.7 171.2 593.5
07 00:20 20.7 82 14.76 17.5 0 0 1013.1 0 32.3 34.1 61.5 162.5 172.3 597.3
07 00:10 20.8 81 14.67 17.4 0 0 1013.1 0 32.1 33.9 61.1 161.2 170.7 591.9
07 00:00 20.9 81 14.75 17.5 0 0 1013.1 0 32.3 34.0 61.3 162.0 171.7 595.2
06 23:50 21 80 14.65 17.4 0 0 1013.1 0 32.1 33.8 60.8 160.6 170.0 589.4
06 23:40 21.1 79 14.55 17.3 0 0 1013.1 0 31.8 33.5 60.3 159.2 168.3 583.6
06 23:30 21.2 77 14.27 17 0 0 1013.1 0 31.2 33.0 59.0 155.7 164.0 568.8
06 23:20 21.7 75 14.31 17.2 0 0 1013.1 0 31.3 32.9 58.8 155.2 163.5 567.1
06 23:10 21.9 74 14.28 17.2 0 0 1013.1 0 31.2 32.8 58.5 154.4 162.7 564.1
06 23:00 22.5 74 14.78 17.6 0 6 1013.1 0 32.2 33.4 60.2 159.0 168.5 584.5
06 22:50 22.7 73 14.75 17.6 0 0 1013.1 0 32.1 33.3 59.9 158.2 167.6 581.4
06 22:40 22.8 71 14.43 17.4 0 0 1013.1 0 31.5 32.7 58.5 154.3 162.9 564.9
06 22:30 23 72 14.8 17.7 2 9 1013.1 0 32.2 33.2 59.9 158.2 167.7 581.7
06 22:20 23.1 70 14.47 17.5 0 2 1013.1 0 31.5 32.6 58.4 154.2 162.8 564.7
06 22:10 23.3 70 14.64 17.5 2 4 1013.1 0 31.9 32.8 59.0 155.8 164.8 571.5
06 22:00 23.2 70 14.55 17.4 2 6 1013.1 0 31.7 32.7 58.7 154.9 163.7 567.9
06 21:50 23.3 69 14.43 17.3 0 2 1013.1 0 31.4 32.5 58.1 153.4 161.8 561.3
06 21:40 23.5 68 14.38 17.4 4 6 1013.1 0 31.3 32.3 57.7 152.4 160.7 557.4
06 21:30 23.6 69 14.67 17.6 2 6 1013.1 0 31.9 32.8 58.9 155.5 164.5 570.8
06 21:20 23.6 68 14.46 17.5 2 2 1013.1 0 31.5 32.4 58.0 153.1 161.6 560.6
06 21:10 23.8 68 14.63 17.7 2 4 1013.1 0 31.8 32.6 58.6 154.6 163.5 567.4
06 21:00 24.1 68 14.88 17.8 4 7 1013.1 0 32.3 33.0 59.4 156.9 166.4 577.3
06 20:50 24.2 68 14.96 17.9 7 9 1013.1 0 32.5 33.1 59.7 157.6 167.3 580.5
06 20:40 24.3 66 14.6 17.7 4 4 1013.1 0 31.7 32.4 58.1 153.3 162.1 562.3
06 20:30 24.6 67 15.08 18.1 4 9 1013.1 0 32.7 33.1 59.9 158.1 168.1 583.3
06 20:20 24.8 66 15.02 18 0 2 1013.1 0 32.5 32.9 59.5 157.1 166.8 578.9
06 20:10 25.1 66 15.28 18.3 7 11 1013.1 0 33.1 33.3 60.3 159.4 169.8 589.3
06 20:00 25.2 65 15.13 18.2 6 13 1013.1 0 32.7 33.0 59.6 157.5 167.5 581.3
06 19:50 25.4 65 15.3 18.3 6 6 1013.1 0 33.1 33.2 60.2 159.0 169.4 588.0
06 19:40 25.6 63 15 18.2 7 11 1013.1 0 32.4 32.6 58.8 155.2 164.8 572.0
06 19:30 25.7 64 15.32 18.4 7 15 1013.1 0 33.1 33.1 60.1 158.6 169.0 586.7
06 19:20 25.8 63 15.17 18.2 6 7 1013.1 0 32.8 32.8 59.3 156.7 166.7 578.7
06 19:10 26.1 61 14.93 18.2 9 11 1013.1 0 32.2 32.3 58.1 153.5 162.8 565.0
06 19:00 26.4 61 15.19 18.3 7 17 1013.1 0 32.8 32.6 59.0 155.8 165.7 575.2
06 18:50 26.7 59 14.93 18 7 9 1013.1 0 32.2 32.1 57.7 152.3 161.5 560.7
06 18:40 27 56 14.41 17.7 7 13 1013.1 0 31.1 31.1 55.3 146.1 154.0 534.3
06 18:30 27.3 56 14.65 17.8 9 20 1013.1 0 31.6 31.4 56.1 148.1 156.5 543.4
06 18:20 27.6 54 14.37 17.7 9 11 1013.1 0 31.0 30.8 54.7 144.5 152.2 528.4
06 18:10 28 52 14.14 17.5 9 11 1013.1 0 30.4 30.3 53.6 141.4 148.5 515.3
06 18:00 28.4 52 14.46 17.6 7 17 1013.1 0 31.1 30.7 54.6 144.0 151.9 527.1
06 17:50 28.7 50 14.13 17.5 9 13 1013.1 0 30.4 30.1 53.0 140.0 147.0 510.3
06 17:40 28.8 50 14.21 17.6 9 13 1013.1 0 30.5 30.2 53.3 140.7 147.8 513.2
06 17:30 29.1 50 14.44 17.6 7 19 1013.1 0 31.0 30.4 54.0 142.5 150.2 521.6
06 17:20 28.8 49 13.92 17.3 9 13 1013.1 0 29.9 29.7 52.2 137.6 144.1 500.3
06 17:10 29.9 48 14.48 17.7 11 17 1013.1 0 31.0 30.2 53.6 141.5 149.2 518.1
06 17:00 29.6 47 13.95 17.4 11 19 1013.1 0 29.9 29.5 51.8 136.6 143.0 496.6
06 16:50 30.3 45 13.87 17.3 17 24 1013.1 0 29.7 29.1 51.0 134.6 140.8 488.7
06 16:40 30.1 46 14.03 17.5 11 19 1013.1 0 30.1 29.4 51.7 136.5 143.1 496.9
06 16:30 29.9 45 13.58 17 11 28 1013.1 0 29.1 28.8 50.1 132.3 137.9 478.5
06 16:20 29.6 45 13.36 16.7 9 15 1013.1 0 28.7 28.6 49.5 130.6 135.7 470.8
06 16:10 30.6 45 14.1 17.6 13 17 1013.1 0 30.2 29.4 51.7 136.4 143.1 496.9
06 16:00 29.9 47 14.18 17.4 9 32 1013.1 0 30.4 29.7 52.4 138.4 145.4 504.8
06 15:50 31 46 14.72 18.3 17 22 1013.1 0 31.4 30.2 53.8 142.0 150.2 521.6
06 15:40 30 49 14.86 18.1 13 20 1013.1 0 31.8 30.8 55.0 145.3 153.9 534.5
06 15:30 31.3 46 14.96 18.6 9 19 1013.1 0 31.9 30.5 54.5 144.0 152.6 530.2
06 15:20 31 45 14.4 18 13 17 1013.1 0 30.8 29.7 52.6 138.8 146.1 507.5
06 15:10 30.3 47 14.49 18 11 15 1013.1 0 31.0 30.1 53.4 140.9 148.6 516.0
06 15:00 30.7 47 14.8 18.4 11 24 1013.1 0 31.6 30.4 54.3 143.4 151.8 527.1

Last Refresh: 07-Aug-2020 07:50:16

Most of the information presented on this site is sourced from the Bureau of Meteorology.  Copyright in all material sourced from the Bureau of Meteorology resides with the Commonwealth of Australia.